Time;durP1;ratioP1;P1;durP2;ratioP2;P2;SDS_P1;SDS_P2;PMS_P1;PMS_P2;Temp;Humidity;BMP_temperature;BMP_pressure;BME280_temperature;BME280_humidity;BME280_pressure;Samples;Min_cycle;Max_cycle;Signal;HPM_P1;HPM_P2
2022/10/06 00:00:36;;;;;;;19.82;12.55;;;;;;;9.70;83.97;101216.47;1676588;85;21038;-82
2022/10/06 00:03:05;;;;;;;18.42;12.63;;;;;;;9.71;84.00;101220.91;1652351;84;21435;-83
2022/10/06 00:05:39;;;;;;;23.62;11.68;;;;;;;9.71;84.02;101222.22;1662002;85;21817;-91
2022/10/06 00:08:06;;;;;;;17.90;11.18;;;;;;;9.71;84.00;101219.59;1652241;85;21138;-81
2022/10/06 00:10:33;;;;;;;19.00;12.18;;;;;;;9.70;84.01;101223.96;1649726;85;21050;-82
2022/10/06 00:12:59;;;;;;;13.75;11.35;;;;;;;9.70;84.05;101223.96;1649621;85;21042;-81
2022/10/06 00:15:30;;;;;;;16.42;11.73;;;;;;;9.72;84.09;101226.62;1660250;85;21562;-90
2022/10/06 00:17:58;;;;;;;18.67;12.88;;;;;;;9.71;84.13;101227.05;1677306;84;22540;-92
2022/10/06 00:20:27;;;;;;;14.73;11.60;;;;;;;9.72;84.11;101225.30;1675307;84;21090;-82
2022/10/06 00:22:55;;;;;;;18.80;11.50;;;;;;;9.72;84.12;101222.28;1653985;85;21086;-81
2022/10/06 00:25:24;;;;;;;18.12;11.45;;;;;;;9.72;84.17;101223.59;1655689;85;21218;-89
2022/10/06 00:27:51;;;;;;;17.92;11.90;;;;;;;9.72;84.09;101221.36;1661536;84;21267;-92
2022/10/06 00:30:23;;;;;;;26.77;11.93;;;;;;;9.70;84.13;101222.64;1674504;84;21247;-81
2022/10/06 00:32:53;;;;;;;15.18;10.88;;;;;;;9.71;84.16;101226.16;1677020;84;21106;-81
2022/10/06 00:35:20;;;;;;;18.45;11.12;;;;;;;9.71;84.18;101222.22;1633503;85;34788;-82
2022/10/06 00:37:47;;;;;;;17.05;11.45;;;;;;;9.70;84.18;101220.02;1655793;85;21749;-82
2022/10/06 00:40:15;;;;;;;15.65;10.43;;;;;;;9.70;84.24;101214.77;1676744;84;21102;-81
2022/10/06 00:42:53;;;;;;;15.05;10.58;;;;;;;9.70;84.30;101217.78;1675543;84;22366;-92
2022/10/06 00:45:32;;;;;;;18.35;10.63;;;;;;;9.71;84.34;101222.22;1675581;85;21066;-82
2022/10/06 00:48:06;;;;;;;17.52;10.90;;;;;;;9.70;84.30;101220.02;1662658;84;21101;-83
2022/10/06 00:50:34;;;;;;;15.10;10.55;;;;;;;9.72;84.37;101223.98;1633194;85;21337;-93
2022/10/06 00:53:02;;;;;;;19.73;11.90;;;;;;;9.70;84.40;101220.41;1638648;86;21109;-94
2022/10/06 00:55:29;;;;;;;14.30;11.05;;;;;;;9.70;84.39;101226.59;1645525;85;22542;-83
2022/10/06 00:57:56;;;;;;;17.32;10.98;;;;;;;9.70;84.42;101230.92;1671983;84;21469;-83
2022/10/06 01:00:23;;;;;;;17.20;10.90;;;;;;;9.70;84.42;101216.47;1650384;86;21074;-93
2022/10/06 01:03:06;;;;;;;15.90;10.78;;;;;;;9.69;84.44;101224.78;1650350;86;21211;-94
2022/10/06 01:05:36;;;;;;;;;;;;;;;9.69;84.42;101216.02;1665439;84;21590;-84
2022/10/06 01:08:03;;;;;;;19.60;11.10;;;;;;;9.67;84.49;101213.75;1654756;85;21215;-84
2022/10/06 01:11:37;;;;;;;15.60;10.45;;;;;;;9.67;84.50;101214.64;1650320;86;21537;-96
2022/10/06 01:14:04;;;;;;;14.73;10.95;;;;;;;9.67;84.59;101215.95;1664129;85;21054;-84
2022/10/06 01:16:31;;;;;;;16.57;10.00;;;;;;;9.66;84.65;101204.95;1674513;85;21135;-84
2022/10/06 01:18:58;;;;;;;18.05;10.98;;;;;;;9.67;84.68;101215.06;1649786;85;21726;-84
2022/10/06 01:21:41;;;;;;;15.38;10.70;;;;;;;9.66;84.70;101212.83;1668660;84;21903;-93
2022/10/06 01:24:40;;;;;;;15.95;10.65;;;;;;;9.66;84.72;101208.00;1665373;84;21100;-94
2022/10/06 01:31:55;;;;;;;14.78;9.68;;;;;;;9.65;84.80;101207.55;1616074;88;21083;-92
2022/10/06 01:34:22;;;;;;;13.72;10.25;;;;;;;9.65;84.89;101208.86;1609570;88;21577;-92
2022/10/06 01:36:49;;;;;;;15.43;10.65;;;;;;;9.65;84.99;101201.86;1596002;89;21772;-91
2022/10/06 01:39:16;;;;;;;14.07;10.98;;;;;;;9.67;85.03;101195.35;1610302;88;21145;-81
2022/10/06 01:41:46;;;;;;;17.67;10.55;;;;;;;9.66;85.08;101212.83;1612776;88;21388;-82
2022/10/06 01:44:11;;;;;;;19.50;11.33;;;;;;;9.67;85.08;101210.70;1635073;86;21083;-82
2022/10/06 01:46:38;;;;;;;14.18;10.75;;;;;;;9.67;85.06;101211.12;1630104;88;21091;-82
2022/10/06 01:49:05;;;;;;;14.95;10.32;;;;;;;9.68;85.15;101211.58;1629117;87;21819;-82
2022/10/06 01:51:32;;;;;;;14.68;9.78;;;;;;;9.69;85.12;101199.81;1614955;88;21152;-81
2022/10/06 01:53:59;;;;;;;14.35;10.48;;;;;;;9.68;85.10;101207.21;1614084;87;21073;-81
2022/10/06 01:56:26;;;;;;;16.35;10.18;;;;;;;9.68;85.10;101201.95;1639740;86;21111;-81
2022/10/06 01:58:53;;;;;;;15.43;10.00;;;;;;;9.69;85.06;101212.07;1620307;86;21101;-81
2022/10/06 02:01:20;;;;;;;13.65;9.75;;;;;;;9.68;85.08;101209.84;1650382;85;22604;-93
2022/10/06 02:03:47;;;;;;;16.52;10.13;;;;;;;9.69;85.13;101201.56;1673987;85;21106;-82
2022/10/06 02:06:14;;;;;;;15.78;10.45;;;;;;;9.69;85.16;101207.70;1683337;85;21082;-82
2022/10/06 02:08:41;;;;;;;13.25;10.05;;;;;;;9.69;85.13;101210.33;1663635;85;21042;-91
2022/10/06 02:11:09;;;;;;;15.13;10.18;;;;;;;9.69;85.08;101209.44;1647200;87;21093;-92
2022/10/06 02:13:36;;;;;;;15.28;10.75;;;;;;;9.67;85.07;101213.33;1656139;85;21818;-92
2022/10/06 02:16:07;;;;;;;17.40;10.90;;;;;;;9.68;85.07;101215.09;1674058;84;21316;-91
2022/10/06 02:18:34;;;;;;;13.18;9.65;;;;;;;9.67;85.07;101213.75;1673183;84;21078;-92
2022/10/06 02:21:01;;;;;;;16.52;10.45;;;;;;;9.66;85.10;101216.78;1673804;85;21040;-92
2022/10/06 02:23:29;;;;;;;13.38;9.80;;;;;;;9.67;85.14;101212.44;1652241;85;21098;-81
2022/10/06 02:26:08;;;;;;;16.17;9.58;;;;;;;9.63;85.17;101207.88;1674733;85;22446;-92
2022/10/06 02:28:34;;;;;;;11.97;9.93;;;;;;;9.66;85.15;101211.52;1674794;85;21100;-92
2022/10/06 02:31:07;;;;;;;15.45;9.78;;;;;;;9.66;85.18;101208.00;1674378;85;21588;-82
2022/10/06 02:33:34;;;;;;;15.93;10.23;;;;;;;9.64;85.11;101213.20;1633465;85;21086;-82
2022/10/06 02:36:02;;;;;;;15.28;9.48;;;;;;;9.64;85.13;101214.95;1675099;85;21596;-81
2022/10/06 02:38:30;;;;;;;14.95;10.03;;;;;;;9.62;85.11;101219.25;1648578;85;21757;-81
2022/10/06 02:40:58;;;;;;;17.75;9.98;;;;;;;9.59;85.07;101214.80;1611799;87;21550;-81
2022/10/06 02:43:37;;;;;;;11.95;9.25;;;;;;;9.58;84.99;101226.13;1622235;87;21690;-92
2022/10/06 02:46:13;;;;;;;22.07;10.58;;;;;;;9.57;84.94;101221.70;1660768;84;21240;-93
2022/10/06 02:48:55;;;;;;;14.40;9.40;;;;;;;9.54;84.90;101228.17;1646041;86;21082;-93
2022/10/06 02:51:22;;;;;;;14.87;9.50;;;;;;;9.50;84.89;101221.91;1647350;85;22486;-93
2022/10/06 02:53:49;;;;;;;15.08;9.88;;;;;;;9.49;84.89;101219.22;1647994;85;21082;-81
2022/10/06 02:56:28;;;;;;;13.15;10.23;;;;;;;9.47;84.88;101220.90;1648925;86;21074;-93
2022/10/06 02:58:55;;;;;;;13.98;9.93;;;;;;;9.46;84.93;101223.03;1668238;85;22244;-82
2022/10/06 03:01:25;;;;;;;15.13;10.28;;;;;;;9.45;85.02;101216.89;1673890;85;21062;-81
2022/10/06 03:03:52;;;;;;;14.85;9.65;;;;;;;9.46;85.12;101222.64;1674829;85;21734;-92
2022/10/06 03:06:27;;;;;;;13.45;9.53;;;;;;;9.45;85.08;101222.16;1653064;85;21054;-92
2022/10/06 03:08:57;;;;;;;14.00;9.33;;;;;;;9.42;85.23;101214.17;1606058;88;21107;-91
2022/10/06 03:11:28;;;;;;;13.75;9.30;;;;;;;9.52;85.38;101228.54;1600030;88;21127;-81
2022/10/06 03:13:55;;;;;;;14.80;9.60;;;;;;;9.57;85.46;101233.52;1617846;87;21064;-92
2022/10/06 03:16:29;;;;;;;14.93;10.15;;;;;;;9.64;85.54;101228.97;1619503;88;21799;-80
2022/10/06 03:18:56;;;;;;;12.30;9.13;;;;;;;9.69;85.72;101230.05;1594999;88;21155;-91
2022/10/06 03:21:32;;;;;;;13.50;9.90;;;;;;;9.78;85.71;101231.20;1612972;88;21555;-92
2022/10/06 03:23:59;;;;;;;13.93;9.75;;;;;;;9.79;85.62;101226.44;1656663;85;21114;-81
2022/10/06 03:26:29;;;;;;;12.75;9.40;;;;;;;9.80;85.54;101230.84;1662527;84;21030;-91
2022/10/06 03:29:00;;;;;;;15.10;9.45;;;;;;;9.80;85.56;101229.52;1664300;85;21773;-91
2022/10/06 03:31:28;;;;;;;18.32;9.90;;;;;;;9.80;85.68;101234.78;1679758;85;21058;-91
2022/10/06 03:33:59;;;;;;;11.20;9.23;;;;;;;9.82;85.65;101230.50;1668127;85;21067;-91
2022/10/06 03:36:26;;;;;;;11.15;9.10;;;;;;;9.82;85.66;101236.64;1643273;85;21074;-81
2022/10/06 03:38:59;;;;;;;14.70;9.05;;;;;;;9.83;85.71;101225.27;1673242;85;21067;-91
2022/10/06 03:41:29;;;;;;;17.40;9.93;;;;;;;9.83;85.67;101231.84;1674769;85;21910;-81
2022/10/06 03:43:57;;;;;;;13.03;8.98;;;;;;;9.82;85.60;101234.02;1675451;85;21085;-81
2022/10/06 03:46:26;;;;;;;11.95;9.35;;;;;;;9.81;85.58;101244.47;1673950;85;21125;-92
2022/10/06 03:48:53;;;;;;;11.03;8.68;;;;;;;9.81;85.66;101244.47;1669201;85;21077;-91
2022/10/06 03:51:28;;;;;;;10.80;8.83;;;;;;;9.83;85.74;101248.94;1658638;85;21407;-82
2022/10/06 03:53:55;;;;;;;12.73;8.93;;;;;;;9.87;85.98;101248.23;1655743;85;21727;-92
2022/10/06 03:56:30;;;;;;;13.43;9.25;;;;;;;10.00;86.32;101252.59;1684584;85;22274;-93
2022/10/06 03:59:02;;;;;;;11.20;8.38;;;;;;;10.14;86.47;101248.72;1669379;84;21082;-82
2022/10/06 04:01:39;;;;;;;12.10;8.53;;;;;;;10.27;86.53;101253.55;1676226;84;21204;-83
2022/10/06 04:04:07;;;;;;;12.30;8.65;;;;;;;10.42;86.54;101260.23;1664695;84;21199;-90
2022/10/06 04:06:36;;;;;;;12.43;8.90;;;;;;;10.56;86.55;101263.31;1670476;85;21776;-82
2022/10/06 04:09:04;;;;;;;11.73;8.28;;;;;;;10.65;86.45;101261.87;1654728;85;21125;-85
2022/10/06 04:11:33;;;;;;;9.33;8.18;;;;;;;10.77;86.60;101264.00;1678081;85;21453;-80
2022/10/06 04:14:09;;;;;;;12.82;8.05;;;;;;;10.90;86.61;101253.44;1669183;85;21533;-93
2022/10/06 04:16:41;;;;;;;12.60;7.08;;;;;;;11.03;86.69;101258.25;1664840;85;21086;-88
2022/10/06 04:19:09;;;;;;;9.68;6.60;;;;;;;11.19;86.98;101254.80;1662847;84;21765;-87
2022/10/06 04:21:37;;;;;;;12.82;6.83;;;;;;;11.37;87.14;101251.37;1649917;85;21097;-90
2022/10/06 04:24:05;;;;;;;9.05;6.12;;;;;;;11.55;87.13;101254.09;1666523;85;21101;-84
2022/10/06 04:26:34;;;;;;;8.90;6.60;;;;;;;11.70;87.05;101263.76;1652236;85;21098;-94
2022/10/06 04:29:01;;;;;;;10.38;8.28;;;;;;;11.84;86.95;101264.14;1677828;84;21770;-92
2022/10/06 04:31:30;;;;;;;7.75;6.80;;;;;;;11.95;86.78;101267.12;1677349;84;21580;-89
2022/10/06 04:33:58;;;;;;;8.55;6.22;;;;;;;12.06;86.64;101261.27;1677331;84;21122;-87
2022/10/06 04:36:28;;;;;;;11.63;6.42;;;;;;;12.17;86.51;101266.84;1660936;84;21066;-88
2022/10/06 04:38:57;;;;;;;6.92;5.87;;;;;;;12.28;86.36;101276.81;1669579;85;22298;-88
2022/10/06 04:41:28;;;;;;;11.15;6.80;;;;;;;12.36;86.18;101271.30;1649681;85;21587;-89
2022/10/06 04:43:55;;;;;;;8.75;6.42;;;;;;;12.42;86.01;101273.65;1626238;86;21824;-87
2022/10/06 04:46:23;;;;;;;12.47;6.95;;;;;;;12.49;85.88;101273.83;1663490;85;21085;-88
2022/10/06 04:48:53;;;;;;;8.60;6.72;;;;;;;12.56;85.82;101281.06;1677221;84;21073;-87
2022/10/06 04:51:26;;;;;;;9.30;5.92;;;;;;;12.62;85.67;101268.88;1664802;84;21073;-90
2022/10/06 04:53:53;;;;;;;8.95;6.20;;;;;;;12.70;85.58;101278.75;1651858;85;21118;-85
2022/10/06 04:56:24;;;;;;;10.28;6.20;;;;;;;12.76;85.45;101280.22;1664422;84;22963;-86
2022/10/06 04:58:53;;;;;;;7.00;6.17;;;;;;;12.81;85.34;101274.63;1667577;84;21094;-85
2022/10/06 05:01:23;;;;;;;7.28;6.17;;;;;;;12.86;85.20;101274.72;1656766;85;21105;-84
2022/10/06 05:03:51;;;;;;;6.37;5.78;;;;;;;12.90;85.09;101266.04;1653581;85;21592;-83
2022/10/06 05:06:38;;;;;;;8.30;5.97;;;;;;;12.93;84.96;101270.97;1661987;85;21133;-82
2022/10/06 05:09:08;;;;;;;6.65;5.90;;;;;;;12.96;84.89;101284.23;1667497;84;22000;-82
2022/10/06 05:11:34;;;;;;;10.43;6.40;;;;;;;13.02;84.73;101280.84;1672346;85;21058;-82
2022/10/06 05:14:01;;;;;;;7.35;5.87;;;;;;;13.03;84.60;101287.93;1667755;85;21109;-82
2022/10/06 05:16:29;;;;;;;13.10;6.03;;;;;;;13.00;84.33;101284.77;1653421;85;21082;-84
2022/10/06 05:18:56;;;;;;;11.45;5.72;;;;;;;12.95;84.17;101294.77;1672346;85;21583;-82
2022/10/06 05:21:28;;;;;;;13.90;6.08;;;;;;;12.91;84.15;101297.75;1659670;85;21757;-81
2022/10/06 05:23:55;;;;;;;9.03;5.70;;;;;;;12.89;84.15;101291.98;1673266;85;21074;-82
2022/10/06 05:26:25;;;;;;;10.13;5.53;;;;;;;12.90;84.22;101299.06;1673528;85;21494;-82
2022/10/06 05:28:52;;;;;;;6.92;6.12;;;;;;;12.93;84.25;101304.41;1671795;84;21027;-82
2022/10/06 05:31:21;;;;;;;10.60;7.42;;;;;;;12.93;84.08;101301.77;1670473;85;21635;-82
2022/10/06 05:33:48;;;;;;;7.03;5.80;;;;;;;12.89;83.90;101303.44;1630577;85;21812;-84
2022/10/06 05:36:20;;;;;;;12.23;6.37;;;;;;;12.81;83.79;101307.21;1632529;86;21684;-84
2022/10/06 05:38:47;;;;;;;6.65;5.83;;;;;;;12.77;83.77;101301.39;1623463;87;21171;-84
2022/10/06 05:41:17;;;;;;;6.92;5.75;;;;;;;12.73;83.80;101307.46;1673951;84;21210;-84
2022/10/06 05:43:44;;;;;;;8.95;5.47;;;;;;;12.70;83.82;101323.66;1667683;84;21623;-83
2022/10/06 05:46:19;;;;;;;13.38;5.85;;;;;;;12.69;83.93;101331.09;1628644;85;21074;-84
2022/10/06 05:48:47;;;;;;;9.63;5.67;;;;;;;12.71;84.06;101338.66;1670788;85;21083;-82
2022/10/06 05:51:15;;;;;;;10.98;6.95;;;;;;;12.74;84.16;101338.72;1662930;85;21659;-82
2022/10/06 05:53:42;;;;;;;6.30;5.70;;;;;;;12.77;84.18;101340.13;1668676;85;21682;-82
2022/10/06 05:56:14;;;;;;;8.78;6.37;;;;;;;12.81;84.28;101344.63;1666895;85;21097;-82
2022/10/06 05:58:43;;;;;;;6.55;5.42;;;;;;;12.86;84.32;101350.94;1675104;84;21855;-84
2022/10/06 06:01:24;;;;;;;6.20;5.30;;;;;;;12.89;84.35;101354.07;1678618;84;21062;-84
2022/10/06 06:04:03;;;;;;;7.22;5.47;;;;;;;12.98;84.39;101363.12;1652860;85;21101;-84
2022/10/06 06:06:40;;;;;;;9.08;5.10;;;;;;;13.07;84.37;101368.19;1657576;85;21706;-85
2022/10/06 06:09:19;;;;;;;9.15;4.70;;;;;;;13.13;84.36;101378.90;1680632;85;21730;-82
2022/10/06 06:11:48;;;;;;;6.03;4.95;;;;;;;13.19;84.41;101379.95;1660850;85;22593;-84
2022/10/06 06:15:59;;;;;;;8.35;5.28;;;;;;;13.30;84.43;101392.53;1664462;84;21050;-82
2022/10/06 06:16:48;;;;;;;9.53;4.50;;;;;;;13.39;84.49;101390.14;1678552;85;21595;-84
2022/10/06 06:19:15;;;;;;;8.90;4.37;;;;;;;13.54;84.59;101397.55;1670188;85;21583;-84
2022/10/06 06:21:42;;;;;;;5.45;4.40;;;;;;;13.70;84.60;101398.36;1680694;85;21074;-82
2022/10/06 06:24:09;;;;;;;5.97;4.40;;;;;;;13.84;84.52;101405.27;1672044;85;21824;-82
2022/10/06 06:26:38;;;;;;;5.03;3.92;;;;;;;14.03;84.52;101409.65;1675626;85;21157;-82
2022/10/06 06:29:05;;;;;;;7.10;4.62;;;;;;;14.25;84.43;101405.70;1656538;85;21117;-82
2022/10/06 06:31:37;;;;;;;6.67;3.87;;;;;;;14.38;84.17;101400.67;1675845;85;21199;-82
2022/10/06 06:34:05;;;;;;;8.78;4.65;;;;;;;14.55;84.08;101415.56;1616668;87;21135;-82
2022/10/06 06:36:39;;;;;;;7.15;6.45;;;;;;;14.77;84.15;101416.91;1624088;86;21783;-82
2022/10/06 06:39:08;;;;;;;5.33;3.42;;;;;;;15.05;84.01;101420.02;1604721;88;21195;-84
2022/10/06 06:41:39;;;;;;;6.78;4.25;;;;;;;15.27;83.60;101431.90;1650522;84;21101;-82
2022/10/06 06:44:07;;;;;;;9.08;4.08;;;;;;;15.46;83.32;101441.05;1651743;85;21066;-82
2022/10/06 06:46:34;;;;;;;6.22;3.67;;;;;;;15.71;83.17;101442.34;1651269;85;21156;-82
2022/10/06 06:49:03;;;;;;;7.10;3.20;;;;;;;15.90;82.69;101445.30;1656932;85;21840;-85
2022/10/06 06:51:35;;;;;;;7.62;3.40;;;;;;;16.02;82.02;101444.57;1678902;84;21140;-82
2022/10/06 06:54:02;;;;;;;8.50;3.62;;;;;;;16.03;81.57;101451.23;1657192;85;21047;-82
2022/10/06 06:56:33;;;;;;;10.50;4.25;;;;;;;16.09;81.22;101457.06;1655791;85;21485;-82
2022/10/06 06:58:58;;;;;;;5.22;3.83;;;;;;;16.10;81.08;101468.13;1667908;83;21015;-82
2022/10/06 07:01:25;;;;;;;11.73;8.78;;;;;;;16.15;80.98;101466.88;1657952;85;21800;-82
2022/10/06 07:03:55;;;;;;;10.95;4.97;;;;;;;16.19;80.78;101462.94;1662979;85;21544;-82
2022/10/06 07:06:22;;;;;;;6.47;4.42;;;;;;;16.25;80.84;101468.33;1652565;85;21101;-82
2022/10/06 07:08:49;;;;;;;6.50;3.72;;;;;;;16.54;80.96;101474.47;1642968;86;21081;-82
2022/10/06 07:11:21;;;;;;;11.38;3.40;;;;;;;16.65;80.15;101469.28;1648866;85;21090;-83
2022/10/06 07:13:55;;;;;;;5.47;3.47;;;;;;;16.61;79.67;101474.08;1648865;85;21755;-82
2022/10/06 07:25:06;;;;;;;5.87;3.20;;;;;;;17.13;79.25;101501.28;1649232;85;21106;-82
2022/10/06 07:27:43;;;;;;;5.75;4.10;;;;;;;17.24;78.45;101489.42;1649536;85;22679;-85
2022/10/06 07:30:19;;;;;;;9.33;8.20;;;;;;;17.13;77.93;101513.25;1652782;85;21081;-85
2022/10/06 07:32:46;;;;;;;5.85;3.70;;;;;;;17.11;77.89;101513.67;1663499;85;21089;-85
2022/10/06 07:35:15;;;;;;;3.33;3.00;;;;;;;17.19;77.89;101511.09;1648726;85;21089;-82
2022/10/06 07:37:42;;;;;;;4.67;3.20;;;;;;;17.23;77.72;101511.15;1660998;85;21085;-82
2022/10/06 07:40:10;;;;;;;6.80;3.12;;;;;;;17.20;77.22;101508.89;1675993;85;22376;-83
2022/10/06 07:42:52;;;;;;;4.65;2.92;;;;;;;17.16;77.16;101512.41;1659062;85;21062;-82
2022/10/06 07:45:37;;;;;;;7.08;3.85;;;;;;;17.21;77.24;101518.23;1658019;85;21058;-83
2022/10/06 07:48:06;;;;;;;17.27;14.93;;;;;;;17.37;77.30;101519.70;1659040;85;21564;-82
2022/10/06 07:50:35;;;;;;;10.58;8.10;;;;;;;17.74;77.54;101528.02;1655151;85;21074;-83
2022/10/06 07:53:07;;;;;;;8.30;5.97;;;;;;;17.92;76.63;101533.48;1663450;84;22482;-83
2022/10/06 07:55:31;;;;;;;6.60;4.33;;;;;;;18.03;76.31;101546.44;1656205;85;21074;-83
2022/10/06 07:57:58;;;;;;;5.70;4.17;;;;;;;18.19;75.98;101550.56;1675692;84;21101;-83
2022/10/06 08:00:26;;;;;;;6.00;3.10;;;;;;;18.23;75.20;101551.03;1662086;85;21689;-83
2022/10/06 08:02:57;;;;;;;6.70;3.83;;;;;;;18.16;74.96;101563.85;1651205;85;21121;-82
2022/10/06 08:05:21;;;;;;;4.85;4.05;;;;;;;18.09;74.70;101561.57;1664391;85;21838;-83
2022/10/06 08:07:49;;;;;;;5.08;2.20;;;;;;;18.03;74.27;101577.52;1648393;85;21129;-84
2022/10/06 08:10:17;;;;;;;5.28;2.17;;;;;;;17.86;74.03;101585.38;1648492;85;21073;-82
2022/10/06 08:12:47;;;;;;;6.78;2.45;;;;;;;17.67;73.30;101594.50;1649458;85;21308;-85
2022/10/06 08:15:14;;;;;;;4.50;2.08;;;;;;;17.44;72.74;101588.08;1635681;85;21130;-85
2022/10/06 08:17:47;;;;;;;3.05;1.70;;;;;;;17.23;72.30;101603.36;1676414;85;21761;-85
2022/10/06 08:20:13;;;;;;;4.90;1.80;;;;;;;17.06;71.85;101600.50;1656724;85;21122;-83
2022/10/06 08:22:40;;;;;;;5.50;4.05;;;;;;;16.89;71.70;101602.55;1661870;84;21089;-85
2022/10/06 08:25:08;;;;;;;5.22;2.70;;;;;;;16.79;71.61;101600.59;1653271;85;21065;-85
2022/10/06 08:27:36;;;;;;;8.43;4.00;;;;;;;16.69;71.38;101607.55;1663531;85;21144;-83
2022/10/06 08:30:05;;;;;;;7.70;3.00;;;;;;;16.63;71.32;101619.45;1668200;85;21903;-85
2022/10/06 08:32:32;;;;;;;3.33;1.72;;;;;;;16.61;71.14;101622.52;1649276;85;21074;-83
2022/10/06 08:35:00;;;;;;;5.65;2.05;;;;;;;16.61;71.08;101624.26;1649116;85;21584;-85
2022/10/06 08:37:26;;;;;;;8.13;2.55;;;;;;;16.64;70.97;101636.27;1658246;85;21072;-85
2022/10/06 08:39:53;;;;;;;8.65;2.50;;;;;;;16.75;70.90;101634.66;1659202;85;21097;-82
2022/10/06 08:42:42;;;;;;;2.80;1.45;;;;;;;16.83;70.84;101639.66;1649187;85;21781;-83
2022/10/06 08:45:34;;;;;;;2.72;1.42;;;;;;;16.92;70.70;101646.00;1668512;85;21074;-82
2022/10/06 08:48:12;;;;;;;3.83;1.80;;;;;;;17.01;70.63;101644.80;1632214;86;21476;-82
2022/10/06 08:51:08;;;;;;;8.28;3.30;;;;;;;17.19;70.32;101663.65;1642400;87;21648;-85
2022/10/06 08:53:56;;;;;;;7.58;2.33;;;;;;;17.27;69.48;101667.73;1621346;87;21169;-85
2022/10/06 08:56:37;;;;;;;3.83;1.95;;;;;;;17.12;68.81;101676.41;1618368;88;21791;-84
2022/10/06 08:59:04;;;;;;;6.05;2.95;;;;;;;16.96;68.42;101680.63;1627796;86;21095;-84
2022/10/06 09:01:50;;;;;;;4.08;1.50;;;;;;;16.82;68.26;101693.73;1675690;84;21578;-84
2022/10/06 09:04:28;;;;;;;4.95;1.82;;;;;;;16.78;68.45;101698.52;1663648;84;22149;-83
2022/10/06 09:07:14;;;;;;;4.67;1.77;;;;;;;16.79;68.38;101689.66;1670657;85;21090;-85
2022/10/06 09:10:06;;;;;;;4.03;1.62;;;;;;;16.81;68.34;101700.32;1637719;85;21812;-82
2022/10/06 09:12:44;;;;;;;8.63;3.87;;;;;;;16.89;68.18;101695.62;1664723;85;21093;-83
2022/10/06 09:15:39;;;;;;;6.20;2.65;;;;;;;17.02;68.18;101709.95;1667821;85;21161;-85
2022/10/06 09:18:37;;;;;;;7.03;4.03;;;;;;;17.25;68.10;101706.29;1648767;85;21152;-85
2022/10/06 09:21:16;;;;;;;5.67;3.70;;;;;;;17.61;68.01;101698.73;1666858;85;21146;-83
2022/10/06 09:23:54;;;;;;;4.05;1.90;;;;;;;17.99;67.75;101712.46;1669801;85;21742;-82
2022/10/06 09:26:21;;;;;;;3.52;1.95;;;;;;;18.20;66.86;101713.55;1643212;85;21105;-83
2022/10/06 09:28:49;;;;;;;6.33;2.05;;;;;;;18.35;66.35;101724.33;1643206;85;21105;-85
2022/10/06 09:31:28;;;;;;;4.50;1.65;;;;;;;18.53;66.00;101720.05;1638509;85;21090;-83
2022/10/06 09:34:16;;;;;;;6.45;1.72;;;;;;;18.50;65.00;101712.91;1647997;85;21157;-85
2022/10/06 09:37:08;;;;;;;9.30;1.50;;;;;;;18.50;64.52;101729.34;1654950;85;21865;-82
2022/10/06 09:39:43;;;;;;;6.62;1.55;;;;;;;18.36;64.53;101736.80;1637845;85;21663;-85
2022/10/06 09:42:21;;;;;;;5.00;1.65;;;;;;;18.26;64.38;101752.23;1669634;84;21093;-85
2022/10/06 09:45:08;;;;;;;8.60;1.95;;;;;;;18.14;64.01;101749.02;1646859;85;21054;-86
2022/10/06 09:47:43;;;;;;;8.08;3.40;;;;;;;17.96;63.50;101775.05;1655215;85;20999;-84
2022/10/06 09:50:20;;;;;;;8.10;2.45;;;;;;;17.69;62.80;101780.46;1675281;85;21055;-85
2022/10/06 09:53:05;;;;;;;4.55;1.80;;;;;;;17.61;62.94;101767.50;1666071;85;21485;-83
2022/10/06 09:55:34;;;;;;;6.53;1.87;;;;;;;17.67;63.23;101790.65;1665711;85;21062;-85
2022/10/06 09:58:05;;;;;;;;;;;;;;;17.76;63.26;101798.75;1653392;85;21091;-83
2022/10/06 10:00:38;;;;;;;3.50;1.50;;;;;;;17.79;62.91;101807.20;1639527;86;20396;-83
2022/10/06 10:03:11;;;;;;;8.53;2.00;;;;;;;17.76;62.73;101803.19;1646681;85;21900;-84
2022/10/06 10:05:48;;;;;;;5.55;2.25;;;;;;;17.74;62.79;101814.27;1666847;83;21070;-83
2022/10/06 10:08:29;;;;;;;11.10;1.65;;;;;;;17.76;62.31;101817.39;1673825;85;21089;-85
2022/10/06 10:13:58;;;;;;;10.93;2.58;;;;;;;17.74;61.91;101840.45;1660144;85;21777;-85
2022/10/06 10:16:33;;;;;;;7.20;1.70;;;;;;;17.74;62.01;101844.45;1650749;85;22237;-83
2022/10/06 10:19:01;;;;;;;8.80;1.47;;;;;;;17.78;61.91;101846.71;1664382;85;21169;-85
2022/10/06 10:21:36;;;;;;;6.15;2.22;;;;;;;17.80;61.86;101854.28;1657998;85;21153;-83
2022/10/06 10:24:01;;;;;;;12.30;4.15;;;;;;;17.96;61.94;101864.70;1660600;85;21007;-85
2022/10/06 10:27:13;;;;;;;7.53;2.47;;;;;;;18.09;61.29;101853.77;1656560;84;21017;-83
2022/10/06 10:30:08;;;;;;;7.65;2.85;;;;;;;18.08;61.06;101854.22;1647921;85;22542;-86
2022/10/06 10:33:00;;;;;;;9.00;2.85;;;;;;;17.96;60.16;101868.30;1665390;84;21016;-83
2022/10/06 10:35:30;;;;;;;11.93;1.90;;;;;;;17.86;59.60;101874.36;1649205;85;21019;-86
2022/10/06 10:38:07;;;;;;;9.50;1.90;;;;;;;17.88;60.27;101878.81;1648627;85;21150;-85
2022/10/06 10:40:39;;;;;;;4.92;1.65;;;;;;;17.91;59.79;101885.09;1669502;84;21074;-82
2022/10/06 10:43:25;;;;;;;5.10;1.57;;;;;;;17.92;59.62;101881.09;1663999;84;21767;-83
2022/10/06 10:46:02;;;;;;;6.78;2.17;;;;;;;17.91;59.47;101883.31;1668318;85;21090;-85
2022/10/06 10:48:41;;;;;;;6.70;1.98;;;;;;;17.85;59.32;101883.24;1649581;85;21085;-82
2022/10/06 10:51:16;;;;;;;7.28;2.12;;;;;;;17.80;59.12;101888.91;1649266;85;21057;-83
2022/10/06 10:53:50;;;;;;;7.47;1.40;;;;;;;17.77;58.99;101879.53;1649138;85;21035;-83
2022/10/06 10:56:20;;;;;;;6.62;1.70;;;;;;;17.74;58.88;101885.72;1674768;85;22499;-83
2022/10/06 10:58:48;;;;;;;7.55;1.98;;;;;;;17.74;58.74;101899.48;1656269;85;21019;-85
2022/10/06 11:01:54;;;;;;;7.08;1.98;;;;;;;17.75;58.81;101899.48;1651776;85;21165;-85
2022/10/06 11:04:21;;;;;;;8.03;1.80;;;;;;;17.86;58.89;101905.88;1640226;85;21248;-82
2022/10/06 11:07:05;;;;;;;6.00;1.60;;;;;;;18.00;58.57;101914.48;1648071;86;21189;-82
2022/10/06 11:09:43;;;;;;;8.13;1.85;;;;;;;18.11;58.51;101928.84;1648531;86;21839;-82
2022/10/06 11:12:33;;;;;;;5.37;1.90;;;;;;;18.30;58.02;101934.40;1638064;85;21095;-85
2022/10/06 11:15:37;;;;;;;8.88;4.25;;;;;;;18.49;57.92;101920.84;1582438;86;21741;-85
2022/10/06 11:18:44;;;;;;;9.85;2.80;;;;;;;18.81;57.61;101930.12;1641022;86;21654;-82
2022/10/06 11:21:15;;;;;;;7.22;2.27;;;;;;;19.07;56.71;101933.48;1648857;86;21045;-83
2022/10/06 11:24:06;;;;;;;12.00;1.80;;;;;;;19.18;56.44;101943.81;1648910;86;22652;-85
2022/10/06 11:26:47;;;;;;;9.80;2.00;;;;;;;19.16;55.84;101943.32;1628297;85;21642;-85
2022/10/06 11:29:31;;;;;;;8.35;2.02;;;;;;;19.06;55.62;101950.81;1620540;86;21094;-86
2022/10/06 11:32:08;;;;;;;11.33;3.27;;;;;;;18.97;55.40;101944.94;1648388;85;21204;-83
2022/10/06 11:34:35;;;;;;;9.75;2.83;;;;;;;18.86;55.34;101951.94;1648108;86;22343;-83
2022/10/06 11:37:13;;;;;;;8.45;3.22;;;;;;;18.72;54.68;101961.11;1644202;85;21757;-85
2022/10/06 11:40:29;;;;;;;8.85;2.90;;;;;;;18.50;54.54;101950.64;1636507;86;21182;-84
2022/10/06 11:43:37;;;;;;;6.42;2.50;;;;;;;18.34;54.62;101956.21;1663381;85;21062;-85
2022/10/06 11:46:36;;;;;;;9.03;2.60;;;;;;;18.18;54.68;101952.47;1658001;85;21050;-85
2022/10/06 11:49:32;;;;;;;7.53;1.90;;;;;;;17.93;54.70;101967.25;1669090;85;21070;-83
2022/10/06 11:52:13;;;;;;;7.90;3.15;;;;;;;17.69;54.72;101961.98;1648951;85;21766;-83
2022/10/06 11:54:55;;;;;;;10.10;1.92;;;;;;;17.46;54.85;101958.52;1646159;85;21086;-85
2022/10/06 11:57:28;;;;;;;7.53;2.47;;;;;;;17.31;55.33;101968.04;1650648;85;21085;-86
2022/10/06 12:00:04;;;;;;;6.40;1.72;;;;;;;17.24;55.44;101972.34;1674557;85;21078;-83
2022/10/06 12:02:39;;;;;;;12.63;5.12;;;;;;;17.20;55.55;101978.05;1657510;85;21082;-85
2022/10/06 12:05:15;;;;;;;8.25;2.10;;;;;;;17.20;55.68;101994.45;1656327;85;22470;-83